Portada
METAR-TAF:

METAR-TAF

Aeropuertos :

Aeropuerto de Pointe-Noire

Pointe-Noire, Congo

latitud: 04-49S, longitud: 011-54E, altitud: 17 m

Observación

El informe se hizo hace 1 hora y 6 minutos, a las 15:00 UTC
Viento 7 kt del sur-suroeste
Temperatura 26°C
Humedad 89%
Presión 1010 hPa
Visibilidad: 7000 m
Cielo nuboso a una altura de 1000 ft
Cielo nuboso a una altura de 2300 ft

METAR: FCPP 171500Z 21007KT 7000 BKN010 BKN023 26/24 Q1010 NOSIG

Hora: 17:06 (16:06 UTC)

Pronóstico

El informe se hizo hace 5 horas y 6 minutos, a las 11:00 UTC
Pronóstico válido del 17 a las 12 UTC al 18 a las 12 UTC
Viento 7 kt del suroeste
Visibilidad 10 km o más
Nubes dispersas a una altura de 1300 ft
Cielo nuboso a una altura de 2600 ft

TAF: FCPP 171100Z 1712/1812 22007KT 9999 SCT013 BKN026

Observaciones y pronósticos meteorológicos de más de 4000 aeropuertos (mensajes METAR y TAF).

Los puntos amarillos y rojos representan las estaciones disponibles.

Ponga el ratón en el punto deseado para ver el nombre de la estación.

Haga clic para ver las observaciones y los pronósticos meteorológicos.

Para cambiar el mapa : haga clic en los botones verdes con una cruz de color negro para hacer un zoom, en el botón verde con un guión para alejar o en las flechas verdes para mapas adyacentes.


METAR-TAF: